Time;durP1;ratioP1;P1;durP2;ratioP2;P2;SDS_P1;SDS_P2;PMS_P1;PMS_P2;Temp;Humidity;BMP_temperature;BMP_pressure;BME280_temperature;BME280_humidity;BME280_pressure;Samples;Min_cycle;Max_cycle;Signal;HPM_P1;HPM_P2
2021/12/28 00:01:20;;;;;;;7.77;6.27;;;4.80;99.90;;;;;;4993519;28;20176;-78
2021/12/28 00:03:46;;;;;;;6.93;6.33;;;4.80;99.90;;;;;;4986445;28;20217;-77
2021/12/28 00:06:14;;;;;;;5.67;5.17;;;4.80;99.90;;;;;;4991507;28;20258;-78
2021/12/28 00:08:40;;;;;;;6.57;5.97;;;4.90;99.90;;;;;;4994313;28;20212;-77
2021/12/28 00:11:07;;;;;;;6.63;5.17;;;4.70;99.90;;;;;;4994644;28;20187;-77
2021/12/28 00:13:33;;;;;;;7.03;6.33;;;4.80;99.90;;;;;;4990236;28;20218;-77
2021/12/28 00:18:32;;;;;;;8.43;7.20;;;4.80;99.90;;;;;;5025181;23;20234;-77
2021/12/28 00:21:00;;;;;;;7.73;7.03;;;4.70;99.90;;;;;;5006920;28;20185;-75
2021/12/28 00:23:31;;;;;;;7.10;6.50;;;4.80;99.90;;;;;;5012030;28;20175;-76
2021/12/28 00:25:58;;;;;;;8.33;7.53;;;4.70;99.90;;;;;;5013383;28;20661;-75
2021/12/28 00:28:24;;;;;;;8.60;7.80;;;4.70;99.90;;;;;;5013089;28;20224;-75
2021/12/28 00:30:52;;;;;;;7.03;6.33;;;4.70;99.90;;;;;;5012043;28;20181;-76
2021/12/28 00:33:19;;;;;;;8.83;7.77;;;4.70;99.90;;;;;;5002391;28;20204;-76
2021/12/28 00:35:45;;;;;;;7.27;6.57;;;4.70;99.90;;;;;;5000486;28;20264;-75
2021/12/28 00:38:15;;;;;;;10.13;6.70;;;4.70;99.90;;;;;;5011943;28;20283;-75
2021/12/28 00:40:41;;;;;;;7.53;6.73;;;4.60;99.90;;;;;;5013115;28;20516;-75
2021/12/28 00:43:07;;;;;;;7.17;6.43;;;4.60;99.90;;;;;;5011945;28;20226;-76
2021/12/28 00:45:33;;;;;;;6.57;5.97;;;4.70;99.90;;;;;;5013131;28;20231;-76
2021/12/28 00:47:59;;;;;;;6.67;6.07;;;4.70;99.90;;;;;;5013077;28;20210;-76
2021/12/28 00:50:26;;;;;;;7.37;5.10;;;4.70;99.90;;;;;;5013050;28;20184;-76
2021/12/28 00:52:51;;;;;;;6.07;5.53;;;4.60;99.90;;;;;;5013060;28;20241;-75
2021/12/28 00:55:19;;;;;;;6.50;5.90;;;4.50;99.90;;;;;;5012994;28;20203;-75
2021/12/28 00:57:45;;;;;;;6.27;5.77;;;4.50;99.90;;;;;;5011621;28;20228;-76
2021/12/28 01:00:18;;;;;;;5.97;5.47;;;4.50;99.90;;;;;;5011686;28;20270;-76
2021/12/28 01:02:44;;;;;;;7.17;5.27;;;4.50;99.90;;;;;;5012991;28;20528;-76
2021/12/28 01:05:11;;;;;;;5.30;4.80;;;4.50;99.90;;;;;;5012976;28;20304;-75
2021/12/28 01:07:36;;;;;;;6.80;5.77;;;4.30;99.90;;;;;;5011663;28;20224;-76
2021/12/28 01:10:05;;;;;;;6.20;5.60;;;4.30;99.90;;;;;;5013197;28;20645;-76
2021/12/28 01:12:31;;;;;;;6.10;5.60;;;4.20;99.90;;;;;;5012865;28;20563;-76
2021/12/28 01:14:57;;;;;;;7.03;6.43;;;4.20;99.90;;;;;;5004426;28;20207;-76
2021/12/28 01:17:23;;;;;;;19.23;6.30;;;4.30;99.90;;;;;;5012748;28;20326;-76
2021/12/28 01:19:48;;;;;;;7.20;6.60;;;4.20;99.90;;;;;;5013789;28;20177;-76
2021/12/28 01:22:14;;;;;;;6.57;5.90;;;4.20;99.90;;;;;;5016648;28;20215;-75
2021/12/28 01:24:40;;;;;;;6.13;5.63;;;4.20;99.90;;;;;;5015160;28;20184;-76
2021/12/28 01:27:06;;;;;;;7.67;6.97;;;4.20;99.90;;;;;;5015708;28;20682;-76
2021/12/28 01:29:32;;;;;;;6.53;5.93;;;4.30;99.90;;;;;;5016497;28;20190;-75
2021/12/28 01:31:58;;;;;;;8.07;6.70;;;4.30;99.90;;;;;;5016445;28;20183;-75
2021/12/28 01:34:24;;;;;;;6.53;5.93;;;4.20;99.90;;;;;;5015025;28;20562;-76
2021/12/28 01:36:50;;;;;;;6.07;5.57;;;4.20;99.90;;;;;;5014935;28;20205;-77
2021/12/28 01:39:16;;;;;;;6.57;5.97;;;4.10;99.90;;;;;;5016854;28;20672;-76
2021/12/28 01:41:41;;;;;;;6.70;6.10;;;4.20;99.90;;;;;;5015052;28;20172;-76
2021/12/28 01:44:10;;;;;;;5.40;4.90;;;4.10;99.90;;;;;;5016122;28;20211;-76
2021/12/28 01:46:37;;;;;;;6.03;5.53;;;4.20;99.90;;;;;;5007655;28;20181;-76
2021/12/28 01:49:06;;;;;;;6.23;5.73;;;4.10;99.90;;;;;;5007496;28;20177;-76
2021/12/28 01:51:35;;;;;;;6.90;6.20;;;4.30;99.90;;;;;;5014133;28;20662;-76
2021/12/28 01:54:03;;;;;;;5.33;4.80;;;4.30;99.90;;;;;;5012511;28;20196;-76
2021/12/28 01:56:31;;;;;;;5.00;4.60;;;4.40;99.90;;;;;;5007062;28;20178;-77
2021/12/28 01:58:58;;;;;;;7.17;4.90;;;4.30;99.90;;;;;;5015869;28;20207;-75
2021/12/28 02:01:25;;;;;;;5.53;5.10;;;4.20;99.90;;;;;;5014473;28;20183;-76
2021/12/28 02:03:51;;;;;;;6.07;5.47;;;4.10;99.90;;;;;;5014518;28;20688;-75
2021/12/28 02:06:17;;;;;;;5.60;5.20;;;4.10;99.90;;;;;;5012018;28;20184;-77
2021/12/28 02:08:43;;;;;;;6.00;5.50;;;4.10;99.90;;;;;;5008661;28;20199;-75
2021/12/28 02:11:11;;;;;;;6.13;5.63;;;4.20;99.90;;;;;;4996060;28;20177;-76
2021/12/28 02:13:37;;;;;;;5.87;5.37;;;4.30;99.90;;;;;;5014348;28;20188;-76
2021/12/28 02:16:03;;;;;;;6.57;5.97;;;4.20;99.90;;;;;;5015651;28;20180;-75
2021/12/28 02:18:31;;;;;;;5.93;5.43;;;4.20;99.90;;;;;;5014015;28;20693;-76
2021/12/28 02:20:58;;;;;;;8.13;6.00;;;4.20;99.90;;;;;;5008471;28;20187;-76
2021/12/28 02:23:24;;;;;;;6.87;5.27;;;4.10;99.90;;;;;;5009973;28;20286;-76
2021/12/28 02:25:51;;;;;;;6.43;5.77;;;4.10;99.90;;;;;;5015383;28;20264;-75
2021/12/28 02:28:17;;;;;;;6.63;5.87;;;4.10;99.90;;;;;;5008085;28;20255;-76
2021/12/28 02:30:46;;;;;;;6.47;5.87;;;4.10;99.90;;;;;;4999200;28;20214;-76
2021/12/28 02:33:12;;;;;;;6.10;5.60;;;4.00;99.90;;;;;;5013477;28;20175;-75
2021/12/28 02:35:39;;;;;;;6.57;6.00;;;4.00;99.90;;;;;;5015117;28;20195;-76
2021/12/28 02:38:09;;;;;;;8.53;6.40;;;4.00;99.90;;;;;;5013810;28;20197;-76
2021/12/28 02:40:36;;;;;;;6.33;5.80;;;4.00;99.90;;;;;;5015052;28;20183;-76
2021/12/28 02:43:04;;;;;;;7.00;6.17;;;4.00;99.90;;;;;;5007940;28;20546;-76
2021/12/28 02:45:37;;;;;;;6.20;5.40;;;4.00;99.90;;;;;;5008513;28;20188;-77
2021/12/28 02:48:04;;;;;;;5.60;5.10;;;4.10;99.90;;;;;;5015011;28;20195;-76
2021/12/28 02:50:41;;;;;;;6.03;5.53;;;4.00;99.90;;;;;;5015129;28;20287;-75
2021/12/28 02:53:09;;;;;;;5.60;5.10;;;4.00;99.90;;;;;;5013657;28;20265;-75
2021/12/28 02:55:37;;;;;;;7.10;6.50;;;4.10;99.90;;;;;;5014800;28;20288;-76
2021/12/28 02:58:09;;;;;;;6.20;5.67;;;4.10;99.90;;;;;;5013566;28;20196;-76
2021/12/28 03:00:46;;;;;;;6.50;5.87;;;4.10;99.90;;;;;;5015069;28;20669;-76
2021/12/28 03:03:15;;;;;;;7.70;6.03;;;4.00;99.90;;;;;;5014873;28;20633;-75
2021/12/28 03:05:43;;;;;;;8.40;7.40;;;4.10;99.90;;;;;;5014875;28;20324;-76
2021/12/28 03:08:10;;;;;;;6.87;6.27;;;4.10;99.90;;;;;;5014589;28;20200;-76
2021/12/28 03:10:37;;;;;;;6.87;6.27;;;4.20;99.90;;;;;;5012019;28;20948;-78
2021/12/28 03:13:04;;;;;;;7.13;6.20;;;4.20;99.90;;;;;;5008612;28;20214;-76
2021/12/28 03:15:30;;;;;;;7.03;6.43;;;4.20;99.90;;;;;;4995798;28;20219;-76
2021/12/28 03:17:56;;;;;;;7.23;6.53;;;4.20;99.90;;;;;;4993169;28;20217;-75
2021/12/28 03:20:22;;;;;;;7.50;6.30;;;4.20;99.90;;;;;;4988031;28;20174;-77
2021/12/28 03:22:47;;;;;;;8.03;7.23;;;4.10;99.90;;;;;;5004802;28;20237;-77
2021/12/28 03:25:13;;;;;;;8.67;7.40;;;4.00;99.90;;;;;;5012681;28;20704;-76
2021/12/28 03:27:40;;;;;;;7.63;6.93;;;4.00;99.90;;;;;;5012051;28;20203;-76
2021/12/28 03:30:09;;;;;;;8.33;7.30;;;4.00;99.90;;;;;;5011958;28;20171;-76
2021/12/28 03:32:35;;;;;;;7.40;6.80;;;4.10;99.90;;;;;;5009889;28;20186;-77
2021/12/28 03:35:03;;;;;;;7.83;7.07;;;4.10;99.90;;;;;;5013564;28;20203;-76
2021/12/28 03:37:30;;;;;;;8.83;6.67;;;4.20;99.90;;;;;;5012801;28;20279;-76
2021/12/28 03:39:56;;;;;;;8.73;7.80;;;4.40;99.90;;;;;;5012654;28;20209;-76
2021/12/28 03:42:22;;;;;;;9.07;8.27;;;4.30;99.90;;;;;;5000140;28;20183;-76
2021/12/28 03:44:48;;;;;;;9.60;8.57;;;4.40;99.90;;;;;;5004977;28;20184;-75
2021/12/28 03:47:13;;;;;;;10.43;9.17;;;4.40;99.90;;;;;;5011721;28;20204;-76
2021/12/28 03:49:39;;;;;;;9.03;8.13;;;4.40;99.90;;;;;;5013578;28;20190;-76
2021/12/28 03:52:06;;;;;;;9.23;8.40;;;4.30;99.90;;;;;;5013765;28;20187;-75
2021/12/28 03:54:33;;;;;;;8.93;8.13;;;4.40;99.90;;;;;;5012503;28;20213;-73
2021/12/28 03:56:58;;;;;;;9.27;8.30;;;4.50;99.90;;;;;;5013674;28;20196;-77
2021/12/28 03:59:24;;;;;;;10.43;8.30;;;4.50;99.90;;;;;;5013567;28;20203;-76
2021/12/28 04:01:50;;;;;;;9.07;8.27;;;4.50;99.90;;;;;;5013704;28;20237;-75
2021/12/28 04:04:16;;;;;;;10.47;8.40;;;4.50;99.90;;;;;;5012424;28;20658;-76
2021/12/28 04:06:42;;;;;;;9.60;8.50;;;4.40;99.90;;;;;;5013636;28;20175;-76
2021/12/28 04:09:11;;;;;;;10.73;9.40;;;4.30;99.90;;;;;;5002125;28;20175;-76
2021/12/28 04:11:37;;;;;;;9.90;8.90;;;4.30;99.90;;;;;;5013671;28;20179;-76
2021/12/28 04:14:06;;;;;;;12.30;10.10;;;4.40;99.90;;;;;;4998679;28;20207;-75
2021/12/28 04:16:33;;;;;;;10.97;9.20;;;4.40;99.90;;;;;;5012012;28;20218;-76
2021/12/28 04:19:00;;;;;;;10.90;9.30;;;4.40;99.90;;;;;;5013470;28;20179;-76
2021/12/28 04:21:26;;;;;;;9.43;8.50;;;4.40;99.90;;;;;;5001570;28;20183;-76
2021/12/28 04:23:52;;;;;;;9.70;8.70;;;4.50;99.90;;;;;;5012169;28;20183;-76
2021/12/28 04:26:19;;;;;;;10.03;9.13;;;4.60;99.90;;;;;;5013340;28;20226;-76
2021/12/28 04:28:45;;;;;;;8.87;8.00;;;4.60;99.90;;;;;;5013126;28;20208;-77
2021/12/28 04:31:11;;;;;;;8.70;7.90;;;4.60;99.90;;;;;;5013320;28;20231;-77
2021/12/28 04:33:39;;;;;;;9.20;8.23;;;4.70;99.90;;;;;;5012003;28;20530;-76
2021/12/28 04:36:08;;;;;;;12.70;8.67;;;4.40;99.90;;;;;;5013265;28;20233;-75
2021/12/28 04:38:34;;;;;;;10.87;9.00;;;4.50;99.90;;;;;;5011855;28;20231;-76
2021/12/28 04:40:59;;;;;;;10.80;9.43;;;4.60;99.90;;;;;;5013433;28;20183;-76
2021/12/28 04:43:25;;;;;;;8.93;8.03;;;4.60;99.90;;;;;;5013196;28;20543;-76
2021/12/28 04:45:51;;;;;;;8.97;7.40;;;4.70;99.90;;;;;;5004682;28;20531;-75
2021/12/28 04:48:16;;;;;;;10.43;7.83;;;4.70;99.90;;;;;;5013124;28;20202;-77
2021/12/28 04:50:44;;;;;;;9.27;7.30;;;4.80;99.90;;;;;;5013477;28;20697;-76
2021/12/28 04:53:11;;;;;;;9.87;8.00;;;4.90;99.90;;;;;;5013093;28;20230;-77
2021/12/28 04:55:43;;;;;;;8.07;6.57;;;5.10;99.90;;;;;;4986939;28;20204;-77
2021/12/28 04:58:10;;;;;;;7.77;6.60;;;5.10;99.90;;;;;;5017104;28;20203;-76
2021/12/28 05:00:36;;;;;;;13.70;6.50;;;5.20;99.90;;;;;;5009925;28;20204;-77
2021/12/28 05:03:04;;;;;;;8.70;6.20;;;5.30;99.90;;;;;;5000314;28;20275;-77
2021/12/28 05:05:30;;;;;;;8.37;6.60;;;5.30;99.90;;;;;;5014208;28;20185;-77
2021/12/28 05:07:56;;;;;;;7.87;5.27;;;5.40;99.90;;;;;;4999575;28;20552;-77
2021/12/28 05:10:22;;;;;;;7.23;5.50;;;5.40;99.90;;;;;;5011071;28;20240;-78
2021/12/28 05:12:49;;;;;;;6.17;5.43;;;5.50;99.90;;;;;;5015110;28;20181;-77
2021/12/28 05:15:16;;;;;;;6.97;4.67;;;5.60;99.90;;;;;;5004066;28;20197;-78
2021/12/28 05:17:41;;;;;;;5.50;4.50;;;5.70;99.90;;;;;;5016075;28;20217;-76
2021/12/28 05:20:08;;;;;;;5.47;4.40;;;5.70;99.90;;;;;;5016048;28;20553;-77
2021/12/28 05:22:34;;;;;;;6.13;4.10;;;5.70;99.90;;;;;;5016483;28;20194;-77
2021/12/28 05:24:59;;;;;;;5.20;3.90;;;5.80;99.90;;;;;;5016529;28;20226;-77
2021/12/28 05:27:25;;;;;;;4.10;3.70;;;5.90;99.90;;;;;;5010864;28;20695;-76
2021/12/28 05:29:51;;;;;;;5.20;4.70;;;6.00;99.90;;;;;;4999690;28;20200;-77
2021/12/28 05:32:17;;;;;;;4.37;3.50;;;6.00;99.90;;;;;;5006635;28;20562;-77
2021/12/28 05:34:43;;;;;;;5.17;3.80;;;6.00;99.90;;;;;;5014901;28;20701;-77
2021/12/28 05:37:09;;;;;;;6.67;3.20;;;6.10;99.90;;;;;;4995128;28;20199;-77
2021/12/28 05:39:36;;;;;;;8.37;3.47;;;6.10;99.90;;;;;;4996671;28;20253;-78
2021/12/28 05:42:02;;;;;;;3.87;3.27;;;6.20;99.90;;;;;;4995709;28;20178;-77
2021/12/28 05:44:28;;;;;;;5.17;2.93;;;6.20;99.90;;;;;;4995548;28;20187;-77
2021/12/28 05:46:55;;;;;;;4.40;2.93;;;6.20;99.90;;;;;;4998004;28;20199;-78
2021/12/28 05:49:21;;;;;;;4.43;3.33;;;6.20;99.90;;;;;;4997913;28;20319;-78
2021/12/28 05:51:47;;;;;;;5.23;2.93;;;6.40;99.90;;;;;;4998962;28;20187;-77
2021/12/28 05:54:13;;;;;;;7.40;3.17;;;6.30;99.90;;;;;;4996596;28;20307;-77
2021/12/28 05:56:39;;;;;;;5.53;3.50;;;6.40;99.90;;;;;;4995527;28;20257;-78
2021/12/28 05:59:05;;;;;;;3.60;3.10;;;6.40;99.90;;;;;;4994701;28;20535;-80
2021/12/28 06:01:31;;;;;;;3.67;2.73;;;6.40;99.90;;;;;;4998911;28;20522;-76
2021/12/28 06:03:56;;;;;;;3.53;2.97;;;6.40;99.90;;;;;;5014440;28;20186;-76
2021/12/28 06:06:22;;;;;;;3.77;3.40;;;6.50;99.90;;;;;;4996637;28;20710;-76
2021/12/28 06:08:48;;;;;;;3.90;2.93;;;6.60;99.90;;;;;;5002541;28;20208;-76
2021/12/28 06:11:14;;;;;;;5.17;3.10;;;6.50;99.90;;;;;;5015551;28;20211;-76
2021/12/28 06:13:40;;;;;;;5.83;2.87;;;6.50;99.90;;;;;;5015576;28;20181;-77
2021/12/28 06:16:07;;;;;;;3.57;2.77;;;6.60;99.90;;;;;;4991010;28;20266;-76
2021/12/28 06:18:33;;;;;;;4.07;2.80;;;6.70;99.90;;;;;;5008530;28;20217;-77
2021/12/28 06:20:58;;;;;;;3.50;2.40;;;6.60;99.90;;;;;;5002968;28;20175;-78
2021/12/28 06:23:24;;;;;;;3.20;2.60;;;6.70;99.90;;;;;;5000987;28;20190;-76
2021/12/28 06:25:50;;;;;;;2.83;2.40;;;6.70;99.90;;;;;;4996341;28;20198;-77
2021/12/28 06:28:16;;;;;;;2.90;2.47;;;6.70;99.90;;;;;;4998121;28;20238;-77
2021/12/28 06:30:41;;;;;;;2.97;2.20;;;6.70;99.90;;;;;;4978876;28;20208;-76
2021/12/28 06:33:07;;;;;;;2.93;2.47;;;6.80;99.90;;;;;;4998449;28;20191;-77
2021/12/28 06:35:33;;;;;;;2.70;2.30;;;6.70;99.90;;;;;;5003059;28;20203;-77
2021/12/28 06:37:59;;;;;;;2.90;1.90;;;6.80;99.90;;;;;;4987465;28;20202;-77
2021/12/28 06:40:25;;;;;;;2.10;1.90;;;6.70;99.90;;;;;;4997503;28;20187;-77
2021/12/28 06:42:51;;;;;;;1.83;1.40;;;6.80;99.90;;;;;;4996271;28;20189;-77
2021/12/28 06:45:17;;;;;;;1.30;1.20;;;6.80;99.90;;;;;;5061727;23;20244;-79
2021/12/28 06:47:43;;;;;;;2.13;1.53;;;6.90;99.90;;;;;;4996343;28;20207;-79
2021/12/28 06:50:09;;;;;;;1.50;1.20;;;6.90;99.90;;;;;;4991897;28;20176;-79
2021/12/28 06:52:36;;;;;;;2.53;1.13;;;6.90;99.90;;;;;;5015783;28;20684;-79
2021/12/28 06:55:03;;;;;;;1.50;1.40;;;6.90;99.90;;;;;;4999279;28;20218;-79
2021/12/28 06:57:29;;;;;;;1.80;1.30;;;6.90;99.90;;;;;;4997262;28;20193;-79
2021/12/28 06:59:54;;;;;;;2.97;1.47;;;6.90;99.90;;;;;;4997637;28;20177;-77
2021/12/28 07:02:20;;;;;;;2.93;1.83;;;6.90;99.90;;;;;;4990097;28;21446;-79
2021/12/28 07:04:46;;;;;;;1.87;1.50;;;7.00;99.90;;;;;;4995575;28;20247;-78
2021/12/28 07:07:12;;;;;;;1.30;1.20;;;7.00;99.90;;;;;;4996026;28;20178;-79
2021/12/28 07:09:38;;;;;;;1.53;1.27;;;7.00;99.90;;;;;;4991625;28;20185;-80
2021/12/28 07:12:04;;;;;;;1.40;1.10;;;6.90;99.90;;;;;;5007463;28;20200;-80
2021/12/28 07:14:30;;;;;;;1.67;1.57;;;7.00;99.90;;;;;;5008018;28;20232;-80
2021/12/28 07:16:58;;;;;;;1.63;1.53;;;7.00;99.90;;;;;;5010937;28;20228;-77
2021/12/28 07:19:24;;;;;;;2.13;1.20;;;7.00;99.90;;;;;;5012165;28;20177;-78
2021/12/28 07:21:50;;;;;;;2.70;1.70;;;7.00;99.90;;;;;;5008513;28;20189;-78
2021/12/28 07:24:16;;;;;;;1.53;1.43;;;7.00;99.90;;;;;;5010352;28;20235;-79
2021/12/28 07:26:42;;;;;;;1.90;1.80;;;7.00;99.90;;;;;;5015706;28;20182;-78
2021/12/28 07:29:09;;;;;;;2.77;2.07;;;7.00;99.90;;;;;;5013654;28;20177;-79
2021/12/28 07:31:35;;;;;;;2.23;1.80;;;7.00;99.90;;;;;;5012776;28;20265;-79
2021/12/28 07:34:01;;;;;;;2.67;1.80;;;7.00;99.90;;;;;;4995787;28;20203;-79
2021/12/28 07:36:26;;;;;;;2.17;1.80;;;7.00;99.90;;;;;;5012057;28;20212;-79
2021/12/28 07:38:52;;;;;;;2.40;1.90;;;7.00;99.90;;;;;;5012948;28;20706;-79
2021/12/28 07:41:18;;;;;;;2.50;2.30;;;7.10;99.90;;;;;;5012430;28;20241;-80
2021/12/28 07:43:44;;;;;;;2.50;2.30;;;7.00;99.90;;;;;;4997993;28;20179;-79
2021/12/28 07:46:09;;;;;;;2.13;1.93;;;7.00;99.90;;;;;;5013085;28;20247;-78
2021/12/28 07:48:35;;;;;;;2.50;2.30;;;7.10;99.90;;;;;;4995724;28;20184;-81
2021/12/28 07:51:01;;;;;;;2.57;2.37;;;7.30;99.90;;;;;;5012780;28;20185;-79
2021/12/28 07:53:27;;;;;;;2.20;2.00;;;7.00;99.90;;;;;;5016467;28;20187;-79
2021/12/28 07:55:53;;;;;;;2.67;2.07;;;7.00;99.90;;;;;;4999266;28;20276;-79
2021/12/28 07:58:19;;;;;;;2.30;2.10;;;7.00;99.90;;;;;;5017082;28;20181;-79
2021/12/28 08:00:45;;;;;;;2.50;1.97;;;7.00;99.90;;;;;;5017001;28;20180;-79
2021/12/28 08:03:10;;;;;;;2.60;1.90;;;7.10;99.90;;;;;;5017869;28;20186;-78
2021/12/28 08:05:37;;;;;;;2.07;1.87;;;7.00;99.90;;;;;;5013388;28;20207;-79
2021/12/28 08:08:04;;;;;;;2.80;1.93;;;7.10;99.90;;;;;;5011187;28;20177;-78
2021/12/28 08:10:30;;;;;;;3.07;2.03;;;7.10;99.90;;;;;;5012875;28;20181;-79
2021/12/28 08:12:56;;;;;;;2.00;1.90;;;7.10;99.90;;;;;;5005540;28;20192;-79
2021/12/28 08:15:24;;;;;;;1.93;1.83;;;7.10;99.90;;;;;;5014580;28;20222;-77
2021/12/28 08:17:51;;;;;;;2.00;1.90;;;7.10;99.90;;;;;;4997983;28;20182;-79
2021/12/28 08:20:17;;;;;;;1.70;1.60;;;7.10;99.90;;;;;;5010993;28;20184;-79
2021/12/28 08:22:47;;;;;;;2.00;1.77;;;7.20;99.90;;;;;;5015465;28;20182;-78
2021/12/28 08:25:16;;;;;;;3.63;2.00;;;7.20;99.90;;;;;;5016426;28;20248;-79
2021/12/28 08:27:42;;;;;;;3.33;2.33;;;7.20;99.90;;;;;;5017927;28;20188;-79
2021/12/28 08:30:09;;;;;;;2.03;1.80;;;7.20;99.90;;;;;;5006864;28;20273;-78
2021/12/28 08:32:35;;;;;;;1.70;1.60;;;7.20;99.90;;;;;;5002132;28;20182;-79
2021/12/28 08:35:02;;;;;;;2.17;1.80;;;7.20;99.90;;;;;;5002093;28;20233;-79
2021/12/28 08:37:27;;;;;;;2.60;2.20;;;7.20;99.90;;;;;;5020830;28;20542;-78
2021/12/28 08:39:54;;;;;;;2.20;2.00;;;7.20;99.90;;;;;;5001937;28;20264;-79
2021/12/28 08:42:21;;;;;;;1.93;1.83;;;7.60;99.90;;;;;;5000312;28;20192;-80
2021/12/28 08:44:47;;;;;;;4.33;2.13;;;7.30;99.90;;;;;;4998137;28;20272;-80
2021/12/28 08:47:13;;;;;;;1.87;1.73;;;7.30;99.90;;;;;;4999575;28;20270;-80
2021/12/28 08:49:39;;;;;;;2.63;1.83;;;7.30;99.90;;;;;;5018102;28;20213;-82
2021/12/28 08:52:05;;;;;;;1.93;1.70;;;7.30;99.90;;;;;;5018523;28;20561;-82
2021/12/28 08:54:31;;;;;;;1.80;1.60;;;7.30;99.90;;;;;;5017873;28;20217;-79
2021/12/28 08:56:57;;;;;;;1.73;1.63;;;7.30;99.90;;;;;;5017341;28;20173;-81
2021/12/28 08:59:23;;;;;;;1.90;1.60;;;7.40;99.90;;;;;;5000715;28;20180;-80
2021/12/28 09:01:50;;;;;;;1.90;1.70;;;7.30;99.90;;;;;;5016749;28;20257;-80
2021/12/28 09:04:17;;;;;;;2.07;1.87;;;7.30;99.90;;;;;;4999732;28;20285;-80
2021/12/28 09:06:45;;;;;;;1.80;1.70;;;7.40;99.90;;;;;;4999727;28;20178;-82
2021/12/28 09:09:12;;;;;;;3.30;1.73;;;7.30;99.90;;;;;;4999841;28;20171;-80
2021/12/28 09:11:38;;;;;;;1.57;1.47;;;7.40;99.90;;;;;;4999358;28;20182;-80
2021/12/28 09:14:05;;;;;;;1.50;1.40;;;7.40;99.90;;;;;;4999838;28;20270;-79
2021/12/28 09:16:31;;;;;;;1.70;1.60;;;7.50;99.90;;;;;;5001394;28;20175;-82
2021/12/28 09:18:57;;;;;;;2.17;1.53;;;7.40;99.90;;;;;;4997571;28;20583;-81
2021/12/28 09:21:23;;;;;;;3.47;1.67;;;7.50;99.90;;;;;;5000603;28;20571;-82
2021/12/28 09:23:49;;;;;;;2.10;1.90;;;7.50;99.90;;;;;;5017435;28;20166;-82
2021/12/28 09:26:15;;;;;;;2.57;1.93;;;7.50;99.90;;;;;;5000786;28;20181;-82
2021/12/28 09:28:44;;;;;;;3.67;1.63;;;7.50;99.90;;;;;;5017229;28;20192;-82
2021/12/28 09:31:14;;;;;;;1.77;1.67;;;7.50;99.90;;;;;;5016065;28;20175;-79
2021/12/28 09:33:40;;;;;;;1.73;1.63;;;7.50;99.90;;;;;;4999999;28;20176;-81
2021/12/28 09:36:09;;;;;;;2.00;1.87;;;7.50;99.90;;;;;;5016436;28;21107;-80
2021/12/28 09:38:35;;;;;;;2.10;1.57;;;7.50;99.90;;;;;;5017116;28;20177;-80
2021/12/28 09:41:01;;;;;;;1.80;1.60;;;7.60;99.90;;;;;;5000329;28;20198;-79
2021/12/28 09:43:27;;;;;;;2.23;1.90;;;7.60;99.90;;;;;;5001448;28;20643;-80
2021/12/28 09:45:53;;;;;;;1.50;1.40;;;7.70;99.90;;;;;;5017665;28;20684;-80
2021/12/28 09:48:18;;;;;;;2.03;1.30;;;7.70;99.90;;;;;;5001797;28;20555;-80
2021/12/28 09:50:47;;;;;;;2.23;1.30;;;7.70;99.90;;;;;;5001200;28;20554;-82
2021/12/28 09:53:14;;;;;;;1.10;1.00;;;7.80;99.90;;;;;;5018866;28;20201;-80
2021/12/28 09:55:40;;;;;;;2.13;0.77;;;7.90;99.90;;;;;;5018441;28;20209;-80
2021/12/28 09:58:06;;;;;;;0.90;0.90;;;7.90;99.90;;;;;;5019349;28;20200;-81
2021/12/28 10:00:32;;;;;;;1.90;1.10;;;7.90;99.90;;;;;;5020235;28;20173;-82
2021/12/28 10:02:58;;;;;;;1.83;1.23;;;7.90;99.90;;;;;;5019161;28;20639;-81
2021/12/28 10:05:26;;;;;;;2.77;1.60;;;8.00;99.90;;;;;;5002326;28;20250;-79
2021/12/28 10:07:56;;;;;;;1.57;1.43;;;8.00;99.90;;;;;;5001523;28;20185;-80
2021/12/28 10:10:28;;;;;;;1.20;1.00;;;8.00;99.90;;;;;;5002936;28;20177;-80
2021/12/28 10:12:57;;;;;;;0.70;0.70;;;8.10;99.90;;;;;;5017952;28;20186;-79
2021/12/28 10:15:35;;;;;;;1.97;0.80;;;8.10;99.90;;;;;;5014524;28;20209;-81
2021/12/28 10:18:04;;;;;;;0.90;0.80;;;8.10;99.90;;;;;;5002254;28;20197;-81
2021/12/28 10:20:50;;;;;;;1.30;0.67;;;8.10;99.90;;;;;;5020151;28;20170;-81
2021/12/28 10:23:20;;;;;;;0.90;0.70;;;8.10;99.90;;;;;;5002695;28;20269;-80
2021/12/28 10:25:54;;;;;;;0.70;0.70;;;8.10;99.90;;;;;;5017984;28;20205;-80
2021/12/28 10:28:23;;;;;;;1.60;0.70;;;8.10;99.90;;;;;;4987662;28;20186;-80
2021/12/28 10:31:17;;;;;;;1.30;0.97;;;8.10;99.90;;;;;;4998009;28;20185;-80
2021/12/28 10:33:42;;;;;;;0.83;0.80;;;8.20;99.90;;;;;;5001158;28;20186;-80
2021/12/28 10:36:13;;;;;;;1.90;1.10;;;8.10;99.90;;;;;;5019977;28;20180;-82
2021/12/28 10:38:45;;;;;;;1.00;0.60;;;8.20;99.90;;;;;;5019457;28;20180;-80
2021/12/28 10:41:15;;;;;;;1.40;0.53;;;8.20;99.90;;;;;;5018683;28;20261;-80
2021/12/28 10:43:50;;;;;;;0.60;0.60;;;8.20;99.90;;;;;;5002378;28;20268;-82
2021/12/28 10:46:19;;;;;;;1.10;1.00;;;8.30;99.90;;;;;;5019225;28;20862;-80
2021/12/28 10:48:49;;;;;;;1.30;0.60;;;8.30;99.90;;;;;;5021509;28;20180;-80
2021/12/28 10:51:20;;;;;;;0.50;0.40;;;8.40;99.90;;;;;;5001562;28;20185;-81
2021/12/28 10:54:07;;;;;;;0.73;0.50;;;8.40;99.90;;;;;;5023940;28;20539;-81
2021/12/28 10:56:34;;;;;;;0.50;0.50;;;8.40;99.90;;;;;;5017589;28;20250;-81
2021/12/28 10:59:04;;;;;;;0.50;0.30;;;8.50;99.90;;;;;;5001257;28;20222;-80
2021/12/28 11:01:34;;;;;;;0.70;0.40;;;8.50;99.90;;;;;;5018948;28;20169;-80
2021/12/28 11:04:11;;;;;;;0.87;0.70;;;8.50;99.90;;;;;;5001574;28;20241;-81
2021/12/28 11:06:51;;;;;;;1.40;0.53;;;8.50;99.90;;;;;;5000633;28;20182;-80
2021/12/28 11:09:24;;;;;;;0.63;0.40;;;8.60;99.90;;;;;;5005837;28;20204;-81
2021/12/28 11:11:53;;;;;;;0.97;0.50;;;8.50;99.90;;;;;;5019475;28;20183;-79
2021/12/28 11:14:21;;;;;;;0.40;0.40;;;8.50;99.90;;;;;;4998613;28;20217;-82
2021/12/28 11:16:54;;;;;;;0.20;0.20;;;8.50;99.90;;;;;;5001343;28;20246;-80
2021/12/28 11:19:25;;;;;;;0.50;0.40;;;8.60;99.90;;;;;;5018405;28;20186;-80
2021/12/28 11:22:05;;;;;;;0.30;0.30;;;8.70;99.90;;;;;;5017728;28;20567;-80
2021/12/28 11:24:37;;;;;;;0.50;0.50;;;8.60;99.90;;;;;;5000034;28;20213;-80
2021/12/28 11:27:10;;;;;;;0.90;0.50;;;8.70;99.90;;;;;;5000175;28;20181;-80
2021/12/28 11:29:38;;;;;;;0.67;0.53;;;8.60;99.90;;;;;;4997769;28;20198;-80
2021/12/28 11:32:16;;;;;;;0.50;0.50;;;8.60;99.90;;;;;;4999867;28;20543;-80
2021/12/28 11:34:43;;;;;;;0.93;0.70;;;8.60;99.90;;;;;;5015920;28;20225;-79
2021/12/28 11:37:22;;;;;;;1.10;0.60;;;8.60;99.90;;;;;;4997922;28;20183;-79
2021/12/28 11:39:58;;;;;;;0.77;0.50;;;8.70;99.90;;;;;;5017594;28;20170;-80
2021/12/28 11:42:25;;;;;;;1.83;0.57;;;8.70;99.90;;;;;;4998406;28;20547;-81
2021/12/28 11:44:52;;;;;;;0.50;0.40;;;8.70;99.90;;;;;;5017022;28;20250;-80
2021/12/28 11:47:20;;;;;;;0.90;0.53;;;8.80;99.90;;;;;;5017316;28;20638;-80
2021/12/28 11:49:47;;;;;;;0.90;0.67;;;8.80;99.90;;;;;;5017921;28;20578;-81
2021/12/28 11:52:15;;;;;;;0.87;0.67;;;8.80;99.90;;;;;;5002297;28;20179;-80
2021/12/28 11:54:44;;;;;;;0.60;0.47;;;8.80;99.90;;;;;;4999956;28;20213;-80
2021/12/28 11:57:14;;;;;;;1.10;0.80;;;8.90;99.90;;;;;;5017833;28;20186;-80
2021/12/28 11:59:41;;;;;;;1.23;0.70;;;9.00;99.90;;;;;;5017024;28;20194;-79
2021/12/28 12:02:11;;;;;;;0.83;0.60;;;8.90;99.90;;;;;;5017347;28;20182;-79
2021/12/28 12:04:51;;;;;;;0.50;0.50;;;8.90;99.90;;;;;;5002281;28;20271;-80
2021/12/28 12:07:19;;;;;;;1.20;0.70;;;8.90;99.90;;;;;;5002571;28;20194;-80
2021/12/28 12:09:50;;;;;;;1.33;0.60;;;8.90;99.90;;;;;;5020265;28;20583;-80
2021/12/28 12:12:18;;;;;;;0.80;0.60;;;9.00;99.90;;;;;;4994542;28;20197;-79
2021/12/28 12:14:59;;;;;;;2.20;0.57;;;9.00;99.90;;;;;;5013880;28;20214;-79
2021/12/28 12:17:30;;;;;;;1.93;0.60;;;9.00;99.90;;;;;;5012663;28;20183;-79
2021/12/28 12:20:22;;;;;;;0.93;0.83;;;9.10;99.90;;;;;;5016165;28;20177;-78
2021/12/28 12:22:55;;;;;;;0.80;0.60;;;9.10;99.90;;;;;;5016637;28;20178;-79
2021/12/28 12:25:30;;;;;;;1.37;0.93;;;9.20;99.90;;;;;;5017906;28;20208;-80
2021/12/28 12:28:05;;;;;;;9.13;1.37;;;9.20;99.90;;;;;;4996100;28;20958;-79
2021/12/28 12:30:34;;;;;;;3.83;0.90;;;9.30;99.90;;;;;;4998124;28;20198;-80
2021/12/28 12:33:06;;;;;;;5.63;1.13;;;9.40;99.90;;;;;;5016328;28;20186;-79
2021/12/28 12:35:56;;;;;;;5.57;0.80;;;9.40;99.90;;;;;;5015169;28;20214;-80
2021/12/28 12:38:24;;;;;;;1.57;0.40;;;9.40;99.90;;;;;;5001025;28;20266;-80
2021/12/28 12:40:53;;;;;;;0.67;0.57;;;9.50;99.90;;;;;;5015861;28;20186;-80
2021/12/28 12:43:20;;;;;;;0.20;0.20;;;9.40;99.90;;;;;;5016696;28;20174;-81
2021/12/28 12:45:52;;;;;;;0.60;0.60;;;9.40;99.90;;;;;;5017026;28;20226;-81
2021/12/28 12:48:52;;;;;;;0.80;0.70;;;9.40;99.90;;;;;;5016817;28;20645;-80
2021/12/28 12:51:21;;;;;;;0.60;0.50;;;9.40;99.90;;;;;;4995132;28;20186;-82
2021/12/28 12:54:02;;;;;;;0.77;0.77;;;9.40;99.90;;;;;;4996408;28;20229;-80
2021/12/28 12:56:51;;;;;;;0.50;0.50;;;9.40;99.90;;;;;;4996740;28;20179;-82
2021/12/28 12:59:20;;;;;;;0.53;0.50;;;9.40;99.90;;;;;;4996794;28;20217;-80
2021/12/28 13:01:48;;;;;;;0.53;0.50;;;9.40;99.90;;;;;;4997735;28;20178;-79